createdAt,value
2024-01-11T00:06:42.194Z,521.10846
2024-01-11T00:21:44.353Z,142.00523
2024-01-11T00:36:46.393Z,16.48275
2024-01-11T00:51:48.423Z,1.2679
2024-01-11T01:06:50.532Z,0
2024-01-11T01:21:52.590Z,0
2024-01-11T01:36:54.668Z,0
2024-01-11T01:51:56.719Z,0
2024-01-11T02:06:58.812Z,0
2024-01-11T02:22:00.931Z,0
2024-01-11T02:37:02.916Z,0
2024-01-11T02:52:05.078Z,0
2024-01-11T03:07:07.296Z,0
2024-01-11T03:22:09.427Z,0
2024-01-11T03:37:11.512Z,0
2024-01-11T03:52:13.610Z,0
2024-01-11T04:07:15.652Z,0
2024-01-11T04:22:17.630Z,0
2024-01-11T04:37:19.648Z,0
2024-01-11T04:52:21.780Z,0
2024-01-11T05:07:23.800Z,0
2024-01-11T05:22:25.838Z,0
2024-01-11T05:37:28.033Z,0
2024-01-11T05:52:30.056Z,0
2024-01-11T06:07:32.122Z,0
2024-01-11T06:22:34.104Z,0
2024-01-11T06:37:36.906Z,0
2024-01-11T06:52:39.014Z,0
2024-01-11T07:07:41.110Z,0
2024-01-11T07:22:43.162Z,0
2024-01-11T07:37:45.273Z,0
2024-01-11T07:52:47.338Z,0
2024-01-11T08:07:49.380Z,0
2024-01-11T08:22:51.424Z,0
2024-01-11T08:53:00.776Z,0
2024-01-11T09:08:02.845Z,0
2024-01-11T09:23:05.213Z,0
2024-01-11T09:38:07.576Z,0
2024-01-11T09:53:09.690Z,0
2024-01-11T10:08:11.785Z,0
2024-01-11T10:23:13.841Z,0
2024-01-11T10:38:15.922Z,0
2024-01-11T10:53:17.991Z,0
2024-01-11T11:08:20.118Z,0
2024-01-11T11:23:22.192Z,0
2024-01-11T11:38:24.294Z,0
2024-01-11T11:53:26.500Z,0
2024-01-11T12:08:28.736Z,0
2024-01-11T12:23:31.077Z,0
2024-01-11T12:38:33.181Z,0
2024-01-11T12:53:35.370Z,0
2024-01-11T13:08:37.612Z,0
2024-01-11T13:23:39.983Z,0
2024-01-11T13:38:42.206Z,0
2024-01-11T13:53:44.333Z,0
2024-01-11T14:08:46.440Z,0
2024-01-11T14:23:48.601Z,0
2024-01-11T14:38:50.694Z,0
2024-01-11T14:53:52.893Z,0
2024-01-11T15:08:55.040Z,1.2679
2024-01-11T15:23:57.245Z,16.48275
2024-01-11T15:39:08.188Z,119.18296
2024-01-11T15:54:19.234Z,387.97858
2024-01-11T16:09:21.407Z,1005.44769
2024-01-11T16:24:23.417Z,2174.45508
2024-01-11T16:39:25.468Z,2639.77563
2024-01-11T16:54:27.482Z,3310.49683
2024-01-11T17:09:29.560Z,2835.03296
2024-01-11T17:24:31.563Z,3792.30029
2024-01-11T17:39:33.578Z,6501.81055
2024-01-11T17:54:35.650Z,9468.70605
2024-01-11T18:09:37.664Z,6634.94043
2024-01-11T18:24:39.838Z,6492.93555
2024-01-11T18:39:41.806Z,6487.86377
2024-01-11T18:54:43.908Z,9775.53809
2024-01-11T19:09:46.074Z,13739.00586
2024-01-11T19:24:48.126Z,14416.06641
2024-01-11T19:39:50.075Z,12703.12793
2024-01-11T19:54:52.292Z,8179.24756
2024-01-11T20:09:54.394Z,6987.41797
2024-01-11T20:24:56.480Z,6887.25342
2024-01-11T20:39:58.596Z,5638.36816
2024-01-11T20:55:00.895Z,5046.25732
2024-01-11T21:10:02.963Z,4998.07666
2024-01-11T21:25:05.065Z,4738.15674
2024-01-11T21:40:07.097Z,5033.57812
2024-01-11T21:55:09.252Z,5052.59668
2024-01-11T22:10:11.342Z,4230.99512
2024-01-11T22:25:13.498Z,3235.69043
2024-01-11T22:40:15.500Z,2908.57129
2024-01-11T22:55:17.496Z,2907.30347
2024-01-11T23:10:19.596Z,2176.99072
2024-01-11T23:25:21.647Z,2008.35962
2024-01-11T23:40:23.678Z,1373.13977
2024-01-11T23:55:25.912Z,721.43726
